Time;durP1;ratioP1;P1;durP2;ratioP2;P2;SDS_P1;SDS_P2;PMS_P1;PMS_P2;Temp;Humidity;BMP_temperature;BMP_pressure;BME280_temperature;BME280_humidity;BME280_pressure;Samples;Min_cycle;Max_cycle;Signal;HPM_P1;HPM_P2
2022/06/18 00:01:20;;;;;;;0.60;0.60;;;22.00;58.00;;;;;;5010103;28;20057;-76
2022/06/18 00:03:46;;;;;;;0.45;0.45;;;21.80;58.00;;;;;;5011210;28;20118;-76
2022/06/18 00:06:11;;;;;;;0.52;0.52;;;21.80;58.10;;;;;;5011457;28;20401;-76
2022/06/18 00:08:38;;;;;;;0.60;0.60;;;21.80;58.20;;;;;;4993755;28;20121;-76
2022/06/18 00:13:41;;;;;;;1.10;0.40;;;21.60;58.40;;;;;;5011302;28;20049;-76
2022/06/18 00:16:19;;;;;;;0.55;0.50;;;21.50;58.40;;;;;;5011321;28;20038;-76
2022/06/18 00:18:46;;;;;;;1.48;0.80;;;21.50;58.60;;;;;;4994986;28;20481;-76
2022/06/18 00:21:17;;;;;;;0.80;0.60;;;21.50;58.70;;;;;;5014789;28;20045;-76
2022/06/18 00:23:44;;;;;;;1.23;0.80;;;21.50;58.90;;;;;;4996900;28;20433;-76
2022/06/18 00:26:11;;;;;;;1.38;0.68;;;21.40;59.00;;;;;;5014611;28;20029;-76
2022/06/18 00:28:37;;;;;;;1.48;0.80;;;21.30;59.10;;;;;;5014156;28;20049;-76
2022/06/18 00:31:03;;;;;;;0.70;0.70;;;21.30;59.30;;;;;;5015026;28;20034;-76
2022/06/18 00:33:29;;;;;;;0.55;0.55;;;21.30;59.40;;;;;;5014320;28;20037;-76
2022/06/18 00:36:00;;;;;;;0.98;0.73;;;21.20;59.40;;;;;;4996764;28;20045;-76
2022/06/18 00:38:29;;;;;;;0.98;0.70;;;21.20;59.60;;;;;;5014260;28;20049;-76
2022/06/18 00:40:56;;;;;;;1.02;0.70;;;21.10;59.60;;;;;;5014784;28;20038;-76
2022/06/18 00:43:32;;;;;;;0.60;0.60;;;21.10;59.60;;;;;;5014311;28;20077;-76
2022/06/18 00:46:08;;;;;;;0.50;0.50;;;21.10;59.80;;;;;;5014228;28;20063;-77
2022/06/18 00:48:43;;;;;;;0.65;0.55;;;21.00;59.80;;;;;;4979076;28;20038;-76
2022/06/18 00:51:23;;;;;;;0.57;0.57;;;21.00;60.60;;;;;;5014543;28;20092;-76
2022/06/18 00:53:53;;;;;;;0.60;0.60;;;20.80;60.00;;;;;;5014466;28;20048;-76
2022/06/18 00:56:33;;;;;;;0.50;0.50;;;20.90;60.20;;;;;;4996682;28;20108;-76
2022/06/18 00:59:04;;;;;;;0.60;0.57;;;20.80;60.30;;;;;;5014084;28;20387;-76
2022/06/18 01:01:35;;;;;;;0.57;0.57;;;20.80;60.40;;;;;;5014433;28;20045;-76
2022/06/18 01:04:19;;;;;;;0.60;0.60;;;20.70;60.40;;;;;;5014005;28;20560;-76
2022/06/18 01:06:45;;;;;;;0.55;0.55;;;20.70;60.50;;;;;;5013750;28;20022;-76
2022/06/18 01:09:14;;;;;;;0.50;0.50;;;20.70;60.50;;;;;;5013757;28;21476;-76
2022/06/18 01:11:42;;;;;;;0.68;0.68;;;20.70;60.60;;;;;;5014133;28;20038;-77
2022/06/18 01:14:10;;;;;;;0.70;0.70;;;20.60;60.70;;;;;;4995599;28;20486;-76
2022/06/18 01:16:37;;;;;;;0.60;0.60;;;20.60;60.80;;;;;;5014065;28;20463;-76
2022/06/18 01:19:09;;;;;;;1.13;0.73;;;20.50;60.90;;;;;;5013707;28;20034;-76
2022/06/18 01:21:44;;;;;;;1.50;0.80;;;20.50;61.10;;;;;;5013709;28;20037;-76
2022/06/18 01:24:23;;;;;;;0.70;0.70;;;20.50;61.30;;;;;;4993896;28;20030;-76
2022/06/18 01:26:53;;;;;;;0.60;0.60;;;20.40;61.30;;;;;;5013564;28;20034;-76
2022/06/18 01:29:20;;;;;;;0.52;0.50;;;20.40;61.40;;;;;;4996381;28;20475;-76
2022/06/18 01:31:47;;;;;;;0.60;0.60;;;20.40;61.40;;;;;;5013949;28;20054;-76
2022/06/18 01:34:14;;;;;;;0.80;0.80;;;20.30;61.40;;;;;;5011232;28;20038;-76
2022/06/18 01:36:41;;;;;;;0.60;0.60;;;20.30;61.60;;;;;;4994038;28;20099;-76
2022/06/18 01:39:13;;;;;;;0.95;0.70;;;20.30;61.70;;;;;;5013501;28;20544;-76
2022/06/18 01:41:53;;;;;;;0.55;0.55;;;20.20;61.80;;;;;;5013221;28;20085;-76
2022/06/18 01:44:29;;;;;;;0.65;0.60;;;20.20;61.90;;;;;;5013215;28;20141;-76
2022/06/18 01:47:07;;;;;;;1.10;0.60;;;20.20;62.10;;;;;;4995502;28;20040;-76
2022/06/18 01:49:38;;;;;;;0.50;0.50;;;20.20;62.20;;;;;;4979695;28;20065;-76
2022/06/18 01:52:05;;;;;;;;;;;20.10;62.10;;;;;;4980034;28;20477;-76
2022/06/18 01:54:39;;;;;;;0.60;0.50;;;20.20;62.00;;;;;;5013642;28;19967;-76
2022/06/18 01:57:21;;;;;;;0.75;0.68;;;20.20;61.80;;;;;;5013094;28;20053;-76
2022/06/18 01:59:52;;;;;;;0.55;0.50;;;20.30;61.80;;;;;;5013133;28;20169;-76
2022/06/18 02:02:17;;;;;;;;;;;20.30;61.70;;;;;;5013394;28;20042;-76
2022/06/18 02:04:43;;;;;;;0.80;0.60;;;20.30;61.60;;;;;;4993785;28;19906;-76
2022/06/18 02:07:10;;;;;;;0.60;0.60;;;20.30;61.60;;;;;;5012912;28;20398;-76
2022/06/18 02:09:56;;;;;;;0.55;0.55;;;20.30;61.70;;;;;;5012869;28;20034;-76
2022/06/18 02:12:27;;;;;;;0.60;0.60;;;20.20;61.90;;;;;;5012585;28;20049;-76
2022/06/18 02:14:57;;;;;;;0.70;0.70;;;20.20;62.00;;;;;;5012925;28;20065;-76
2022/06/18 02:17:25;;;;;;;0.63;0.55;;;20.20;62.00;;;;;;5012813;28;20045;-76
2022/06/18 02:19:56;;;;;;;0.55;0.50;;;20.20;62.10;;;;;;5010603;28;20042;-76
2022/06/18 02:22:29;;;;;;;0.40;0.40;;;20.10;62.20;;;;;;4992676;28;20049;-76
2022/06/18 02:24:56;;;;;;;0.85;0.70;;;20.10;62.20;;;;;;5012918;28;20052;-76
2022/06/18 02:27:23;;;;;;;0.60;0.60;;;20.10;62.40;;;;;;5012560;28;20034;-76
2022/06/18 02:29:49;;;;;;;0.50;0.50;;;20.10;62.50;;;;;;5012714;28;20041;-76
2022/06/18 02:32:31;;;;;;;0.63;0.63;;;20.10;62.70;;;;;;5013021;28;20046;-76
2022/06/18 02:34:57;;;;;;;0.60;0.52;;;19.90;62.70;;;;;;5012976;28;20042;-76
2022/06/18 02:37:27;;;;;;;0.70;0.70;;;20.00;62.90;;;;;;5012846;28;20033;-76
2022/06/18 02:39:57;;;;;;;0.70;0.70;;;19.90;63.00;;;;;;5012361;28;20394;-76
2022/06/18 02:42:25;;;;;;;0.63;0.63;;;19.80;63.00;;;;;;5011228;28;20045;-76
2022/06/18 02:44:51;;;;;;;0.70;0.70;;;19.90;63.20;;;;;;4978512;28;20395;-76
2022/06/18 02:47:20;;;;;;;0.70;0.70;;;19.90;63.30;;;;;;4994717;28;20080;-76
2022/06/18 02:49:55;;;;;;;0.55;0.55;;;19.90;63.40;;;;;;5012418;28;20041;-76
2022/06/18 02:52:23;;;;;;;1.00;0.60;;;19.80;63.40;;;;;;5012680;28;20482;-76
2022/06/18 02:54:49;;;;;;;0.82;0.57;;;19.80;63.50;;;;;;5012123;28;20474;-76
2022/06/18 02:57:24;;;;;;;0.52;0.52;;;19.80;63.50;;;;;;5011890;28;20038;-76
2022/06/18 02:59:49;;;;;;;0.60;0.60;;;19.80;63.60;;;;;;4994576;28;20096;-76
2022/06/18 03:02:15;;;;;;;0.60;0.60;;;19.80;63.60;;;;;;4974925;28;20054;-76
2022/06/18 03:04:41;;;;;;;0.55;0.55;;;19.70;63.60;;;;;;5012167;28;20402;-76
2022/06/18 03:07:07;;;;;;;0.50;0.50;;;19.80;64.30;;;;;;5011893;28;20113;-76
2022/06/18 03:12:06;;;;;;;0.70;0.70;;;19.70;63.70;;;;;;4994439;28;20042;-76
2022/06/18 03:12:18;;;;;;;0.82;0.68;;;19.70;63.70;;;;;;5011556;28;20073;-76
2022/06/18 03:14:44;;;;;;;0.55;0.55;;;19.70;63.80;;;;;;5011505;28;20097;-76
2022/06/18 03:17:10;;;;;;;1.25;0.63;;;19.70;63.80;;;;;;5011775;28;20393;-76
2022/06/18 03:19:41;;;;;;;0.80;0.80;;;19.70;64.00;;;;;;5011969;28;20068;-76
2022/06/18 03:22:10;;;;;;;0.70;0.70;;;19.60;64.10;;;;;;5012126;28;20050;-76
2022/06/18 03:24:36;;;;;;;0.98;0.73;;;19.60;64.20;;;;;;5011998;28;20461;-76
2022/06/18 03:27:02;;;;;;;1.27;0.90;;;19.70;64.40;;;;;;5012039;28;20030;-76
2022/06/18 03:29:28;;;;;;;0.60;0.60;;;19.50;64.30;;;;;;4994005;28;20088;-76
2022/06/18 03:31:54;;;;;;;0.98;0.70;;;19.60;64.50;;;;;;5011462;28;20045;-76
2022/06/18 03:34:19;;;;;;;0.50;0.50;;;19.50;64.50;;;;;;5011546;28;20030;-76
2022/06/18 03:36:45;;;;;;;0.77;0.77;;;19.50;64.60;;;;;;5011520;28;20045;-76
2022/06/18 03:39:12;;;;;;;0.77;0.77;;;19.60;64.70;;;;;;5011930;28;20045;-76
2022/06/18 03:41:37;;;;;;;1.02;0.80;;;19.40;64.70;;;;;;5011504;28;20042;-76
2022/06/18 03:44:03;;;;;;;0.50;0.50;;;19.50;64.80;;;;;;4994017;28;20129;-76
2022/06/18 03:46:29;;;;;;;0.60;0.60;;;19.50;64.80;;;;;;5011421;28;20037;-76
2022/06/18 03:48:59;;;;;;;0.70;0.70;;;19.50;64.90;;;;;;5011611;28;20026;-76
2022/06/18 03:51:26;;;;;;;0.98;0.70;;;19.50;64.90;;;;;;5011764;28;20044;-76
2022/06/18 03:53:52;;;;;;;1.10;0.70;;;19.60;64.90;;;;;;4994763;28;20038;-76
2022/06/18 03:56:21;;;;;;;0.80;0.80;;;19.50;64.90;;;;;;4997005;28;20065;-76
2022/06/18 03:58:48;;;;;;;1.23;0.73;;;19.50;64.90;;;;;;4997449;28;20409;-76
2022/06/18 04:01:18;;;;;;;0.80;0.60;;;19.50;64.80;;;;;;5014795;28;20064;-76
2022/06/18 04:03:44;;;;;;;0.60;0.60;;;19.60;64.90;;;;;;5015267;28;20034;-76
2022/06/18 04:06:10;;;;;;;0.85;0.85;;;19.60;64.80;;;;;;4996741;28;20081;-76
2022/06/18 04:08:36;;;;;;;0.73;0.73;;;19.70;64.90;;;;;;5015079;28;20041;-77
2022/06/18 04:11:03;;;;;;;0.57;0.57;;;19.60;64.90;;;;;;5014819;28;20062;-76
2022/06/18 04:13:29;;;;;;;0.70;0.70;;;19.70;65.00;;;;;;5015109;28;20386;-76
2022/06/18 04:15:56;;;;;;;1.33;0.80;;;19.60;65.00;;;;;;5014697;28;20160;-76
2022/06/18 04:18:21;;;;;;;0.70;0.70;;;19.70;65.10;;;;;;5015187;28;20096;-76
2022/06/18 04:20:48;;;;;;;0.85;0.80;;;19.80;65.10;;;;;;4997270;28;20421;-76
2022/06/18 04:23:15;;;;;;;0.90;0.80;;;19.70;65.00;;;;;;4996482;28;20177;-76
2022/06/18 04:25:42;;;;;;;0.80;0.80;;;19.70;65.00;;;;;;5015303;28;20029;-76
2022/06/18 04:28:10;;;;;;;1.15;0.70;;;19.80;65.00;;;;;;5014768;28;20113;-76
2022/06/18 04:30:36;;;;;;;0.65;0.65;;;19.80;65.00;;;;;;5014856;28;20497;-76
2022/06/18 04:33:02;;;;;;;0.80;0.70;;;19.80;65.00;;;;;;5014751;28;20034;-76
2022/06/18 04:35:28;;;;;;;0.77;0.70;;;19.80;64.90;;;;;;5014862;28;20030;-76
2022/06/18 04:37:54;;;;;;;0.63;0.63;;;19.90;65.00;;;;;;4997172;28;20088;-76
2022/06/18 04:40:28;;;;;;;0.98;0.90;;;19.90;65.00;;;;;;5015123;28;20030;-76
2022/06/18 04:42:53;;;;;;;0.68;0.68;;;20.00;65.00;;;;;;4996663;28;20038;-76
2022/06/18 04:45:19;;;;;;;1.02;0.80;;;20.00;65.00;;;;;;5014788;28;20038;-76
2022/06/18 04:47:45;;;;;;;0.90;0.90;;;20.00;65.00;;;;;;5014292;28;20034;-76
2022/06/18 04:50:18;;;;;;;0.77;0.77;;;20.10;65.00;;;;;;5014411;28;20121;-76
2022/06/18 04:52:44;;;;;;;0.70;0.70;;;20.10;65.00;;;;;;5014331;28;20034;-76
2022/06/18 04:55:10;;;;;;;1.15;1.00;;;20.10;64.90;;;;;;5014356;28;20034;-76
2022/06/18 04:57:35;;;;;;;0.75;0.75;;;20.20;65.00;;;;;;5014411;28;20551;-77
2022/06/18 05:00:03;;;;;;;0.90;0.70;;;20.20;65.00;;;;;;5012496;28;20042;-76
2022/06/18 05:02:29;;;;;;;0.95;0.80;;;20.20;65.10;;;;;;5014073;28;20054;-76
2022/06/18 05:04:55;;;;;;;1.00;0.90;;;20.30;65.10;;;;;;5013384;28;20168;-76
2022/06/18 05:07:21;;;;;;;0.80;0.80;;;20.30;65.10;;;;;;5014330;28;20041;-76
2022/06/18 05:09:48;;;;;;;0.82;0.80;;;20.30;65.00;;;;;;5013951;28;20033;-76
2022/06/18 05:12:15;;;;;;;0.80;0.80;;;20.40;65.60;;;;;;5014202;28;20506;-77
2022/06/18 05:14:41;;;;;;;0.80;0.80;;;20.40;64.90;;;;;;5014551;28;20033;-76
2022/06/18 05:17:12;;;;;;;2.95;0.90;;;20.50;64.90;;;;;;4996475;28;20038;-76
2022/06/18 05:19:38;;;;;;;0.80;0.80;;;20.60;64.90;;;;;;5014426;28;20056;-76
2022/06/18 05:22:04;;;;;;;2.30;1.00;;;20.70;64.90;;;;;;5014326;28;20494;-76
2022/06/18 05:24:30;;;;;;;0.80;0.80;;;20.70;64.80;;;;;;5013956;28;20129;-76
2022/06/18 05:26:59;;;;;;;1.08;0.88;;;20.80;64.80;;;;;;4979931;28;20528;-76
2022/06/18 05:29:25;;;;;;;0.98;0.90;;;20.80;64.80;;;;;;4996094;28;20034;-76
2022/06/18 05:31:51;;;;;;;1.00;1.00;;;20.90;64.80;;;;;;5013817;28;20113;-76
2022/06/18 05:34:17;;;;;;;1.33;1.00;;;20.90;64.60;;;;;;5013427;28;20125;-77
2022/06/18 05:36:43;;;;;;;0.80;0.80;;;21.00;64.60;;;;;;5014248;28;20041;-76
2022/06/18 05:39:15;;;;;;;0.90;0.90;;;21.00;64.50;;;;;;4995676;28;20034;-76
2022/06/18 05:41:41;;;;;;;0.98;0.98;;;21.20;64.60;;;;;;4979887;28;20050;-76
2022/06/18 05:44:07;;;;;;;1.20;1.05;;;21.20;64.40;;;;;;4996407;28;20065;-76
2022/06/18 05:46:33;;;;;;;1.92;1.30;;;21.20;64.40;;;;;;5014145;28;20133;-76
2022/06/18 05:48:59;;;;;;;1.35;1.20;;;21.40;64.50;;;;;;5013621;28;20057;-76
2022/06/18 05:51:25;;;;;;;1.50;1.10;;;21.40;64.40;;;;;;4996405;28;20084;-76
2022/06/18 05:53:50;;;;;;;1.67;1.30;;;21.50;64.40;;;;;;5013622;28;20532;-77
2022/06/18 05:56:16;;;;;;;0.95;0.95;;;21.60;64.40;;;;;;4994302;28;20096;-76
2022/06/18 05:58:42;;;;;;;1.38;1.15;;;21.60;64.30;;;;;;5013244;28;20049;-77
2022/06/18 06:01:08;;;;;;;0.93;0.93;;;21.60;64.30;;;;;;5013318;28;20042;-76
2022/06/18 06:03:35;;;;;;;2.47;1.52;;;21.80;64.30;;;;;;4979884;28;20069;-77
2022/06/18 06:06:01;;;;;;;1.35;1.10;;;21.80;64.30;;;;;;4963756;28;20030;-75
2022/06/18 06:08:26;;;;;;;1.52;1.30;;;21.90;64.30;;;;;;4963143;28;20022;-75
2022/06/18 06:13:29;;;;;;;1.30;1.20;;;22.00;64.20;;;;;;4981367;28;20042;-75
2022/06/18 06:15:55;;;;;;;1.58;1.20;;;22.00;64.10;;;;;;5012899;28;20026;-75
2022/06/18 06:18:23;;;;;;;1.40;1.30;;;22.10;64.10;;;;;;5013348;28;20037;-75
2022/06/18 06:20:52;;;;;;;1.60;1.40;;;22.20;64.10;;;;;;5012958;28;20097;-75
2022/06/18 06:23:18;;;;;;;1.42;1.30;;;22.20;64.10;;;;;;5013549;28;20041;-75
2022/06/18 06:25:46;;;;;;;2.22;1.52;;;22.40;64.10;;;;;;5012888;28;20030;-76
2022/06/18 06:28:16;;;;;;;2.22;1.33;;;22.40;63.90;;;;;;4979515;28;20069;-75
2022/06/18 06:30:42;;;;;;;1.42;1.33;;;22.40;63.90;;;;;;5013034;28;20490;-75
2022/06/18 06:33:15;;;;;;;1.42;1.08;;;22.50;63.90;;;;;;5013578;28;20037;-75
2022/06/18 06:35:42;;;;;;;1.85;1.23;;;22.60;63.80;;;;;;5012733;28;20478;-75
2022/06/18 06:38:09;;;;;;;1.77;1.20;;;22.70;63.80;;;;;;5013031;28;20486;-75
2022/06/18 06:40:36;;;;;;;1.23;1.13;;;22.70;63.70;;;;;;4978741;28;20061;-76
2022/06/18 06:43:03;;;;;;;1.50;1.20;;;22.80;63.70;;;;;;5012728;28;20492;-75
2022/06/18 06:45:32;;;;;;;2.67;1.40;;;22.90;63.60;;;;;;5012875;28;20042;-77
2022/06/18 06:47:58;;;;;;;1.83;1.30;;;23.00;63.60;;;;;;5012789;28;20042;-77
2022/06/18 06:50:25;;;;;;;1.77;1.30;;;23.00;63.40;;;;;;4993463;28;20379;-76
2022/06/18 06:52:51;;;;;;;2.38;1.65;;;23.10;63.30;;;;;;5012395;28;20038;-77
2022/06/18 06:58:02;;;;;;;2.10;1.08;;;23.40;63.20;;;;;;5012294;28;20045;-77
2022/06/18 07:00:28;;;;;;;2.08;1.10;;;23.40;63.10;;;;;;5012503;28;20042;-77
2022/06/18 07:02:54;;;;;;;1.60;1.17;;;23.50;63.10;;;;;;5012313;28;20544;-78
2022/06/18 07:05:20;;;;;;;1.40;1.30;;;23.50;62.90;;;;;;4994760;28;20100;-80
2022/06/18 07:07:45;;;;;;;1.92;1.20;;;23.70;62.80;;;;;;4977941;28;20487;-79
2022/06/18 07:10:11;;;;;;;1.77;1.40;;;23.90;62.70;;;;;;5012561;28;20030;-78
2022/06/18 07:12:38;;;;;;;3.17;1.65;;;24.00;62.50;;;;;;5012322;28;20453;-79
2022/06/18 07:15:05;;;;;;;1.23;1.13;;;24.20;62.20;;;;;;5012537;28;20068;-77
2022/06/18 07:17:31;;;;;;;1.95;1.42;;;24.30;62.00;;;;;;4994781;28;20049;-79
2022/06/18 07:19:57;;;;;;;1.20;1.10;;;24.40;62.00;;;;;;4992387;28;20030;-77
2022/06/18 07:22:23;;;;;;;1.95;1.35;;;24.60;61.90;;;;;;4994691;28;20070;-80
2022/06/18 07:24:49;;;;;;;1.83;1.40;;;24.60;61.80;;;;;;5010454;28;20053;-78
2022/06/18 07:27:14;;;;;;;1.65;1.20;;;24.60;61.80;;;;;;5012844;28;20066;-77
2022/06/18 07:29:40;;;;;;;1.15;1.00;;;24.70;62.00;;;;;;5012823;28;20042;-77
2022/06/18 07:32:11;;;;;;;1.30;1.10;;;24.80;62.00;;;;;;5010343;28;20559;-78
2022/06/18 07:34:39;;;;;;;1.10;1.00;;;24.90;62.00;;;;;;5012067;28;20184;-77
2022/06/18 07:37:04;;;;;;;1.63;1.27;;;24.90;61.90;;;;;;5012158;28;20057;-78
2022/06/18 07:39:30;;;;;;;2.22;1.42;;;25.10;61.90;;;;;;5012373;28;20045;-78
2022/06/18 07:41:56;;;;;;;1.30;1.20;;;25.10;61.80;;;;;;4978398;28;20050;-78
2022/06/18 07:44:24;;;;;;;1.58;1.40;;;25.20;61.80;;;;;;4994248;28;20041;-78
2022/06/18 07:46:52;;;;;;;1.23;0.98;;;25.40;61.80;;;;;;4976447;28;20068;-77
2022/06/18 07:49:19;;;;;;;0.95;0.93;;;25.40;61.60;;;;;;5012526;28;20106;-78
2022/06/18 07:51:45;;;;;;;2.28;1.20;;;25.50;61.70;;;;;;4976539;28;20377;-77
2022/06/18 07:54:15;;;;;;;2.15;1.20;;;25.60;61.60;;;;;;4978478;28;20065;-78
2022/06/18 07:56:49;;;;;;;2.83;1.45;;;25.70;61.60;;;;;;4992268;28;20049;-78
2022/06/18 07:59:16;;;;;;;1.88;1.40;;;25.80;61.50;;;;;;4990995;28;20039;-78
2022/06/18 08:01:42;;;;;;;1.70;1.23;;;25.90;61.50;;;;;;5012246;28;20052;-78
2022/06/18 08:04:08;;;;;;;1.40;1.20;;;26.00;61.50;;;;;;5012364;28;20094;-78
2022/06/18 08:06:34;;;;;;;1.73;1.15;;;26.10;61.50;;;;;;4994652;28;20030;-78
2022/06/18 08:09:00;;;;;;;1.92;1.23;;;26.20;61.40;;;;;;5011774;28;20068;-79
2022/06/18 08:11:28;;;;;;;2.05;1.20;;;26.30;61.30;;;;;;5012257;28;20398;-78
2022/06/18 08:13:56;;;;;;;2.53;1.30;;;26.40;61.20;;;;;;5011413;28;20038;-78
2022/06/18 08:16:22;;;;;;;1.45;1.30;;;26.60;61.20;;;;;;5012059;28;20056;-77
2022/06/18 08:18:48;;;;;;;2.45;1.40;;;26.70;60.90;;;;;;4994639;28;20030;-78
2022/06/18 08:21:23;;;;;;;1.83;1.45;;;26.90;60.70;;;;;;5011519;28;20449;-78
2022/06/18 08:23:53;;;;;;;1.33;1.13;;;27.00;60.60;;;;;;5011456;28;20482;-78
2022/06/18 08:26:19;;;;;;;2.10;1.25;;;27.10;60.50;;;;;;5011609;28;20072;-78
2022/06/18 08:28:46;;;;;;;2.05;1.50;;;27.20;60.40;;;;;;5011153;28;20044;-77
2022/06/18 08:31:11;;;;;;;1.45;1.13;;;27.20;60.30;;;;;;5011909;28;20046;-78
2022/06/18 08:33:37;;;;;;;1.38;1.20;;;27.30;60.30;;;;;;5012050;28;20092;-78
2022/06/18 08:36:09;;;;;;;1.23;1.13;;;27.40;60.40;;;;;;4976694;28;20394;-78
2022/06/18 08:38:35;;;;;;;2.03;1.30;;;27.50;60.20;;;;;;5011433;28;20026;-78
2022/06/18 08:41:24;;;;;;;1.30;1.20;;;27.60;60.20;;;;;;5014160;28;20033;-78
2022/06/18 08:44:08;;;;;;;1.40;1.20;;;27.80;60.00;;;;;;5015226;28;20104;-79
2022/06/18 08:47:10;;;;;;;1.40;1.30;;;27.80;59.90;;;;;;4997079;28;20434;-78
2022/06/18 08:50:10;;;;;;;1.88;1.20;;;27.90;59.90;;;;;;4986489;28;20034;-78
2022/06/18 08:52:57;;;;;;;1.70;1.30;;;27.80;60.00;;;;;;5014071;28;20584;-78
2022/06/18 08:56:00;;;;;;;1.67;1.13;;;27.80;60.10;;;;;;4995608;28;20084;-78
2022/06/18 08:58:51;;;;;;;1.17;1.08;;;27.90;60.00;;;;;;4994870;28;20133;-78
2022/06/18 09:01:26;;;;;;;1.17;1.08;;;28.00;60.00;;;;;;4994445;28;20065;-78
2022/06/18 09:04:11;;;;;;;1.75;1.30;;;28.10;60.00;;;;;;4979768;28;20030;-78
2022/06/18 09:07:07;;;;;;;1.33;1.23;;;28.30;59.80;;;;;;5011813;28;20167;-78
2022/06/18 09:09:52;;;;;;;1.08;0.98;;;28.50;59.50;;;;;;5014395;28;20401;-78
2022/06/18 09:12:26;;;;;;;1.10;0.90;;;28.50;59.30;;;;;;4996833;28;20100;-79
2022/06/18 09:15:11;;;;;;;1.35;1.23;;;28.60;59.40;;;;;;4978294;28;20042;-79
2022/06/18 09:17:43;;;;;;;1.20;1.10;;;28.60;59.20;;;;;;5014085;28;20065;-78
2022/06/18 09:20:26;;;;;;;1.20;1.10;;;28.70;59.40;;;;;;5011810;28;20096;-78
2022/06/18 09:22:56;;;;;;;2.63;1.13;;;28.80;59.40;;;;;;5013943;28;20100;-79
2022/06/18 09:25:28;;;;;;;1.27;1.17;;;28.80;59.10;;;;;;5014437;28;20056;-78
2022/06/18 09:28:03;;;;;;;1.25;1.00;;;29.00;59.10;;;;;;4995214;28;20045;-80
2022/06/18 09:30:43;;;;;;;1.80;1.15;;;29.00;58.90;;;;;;5013910;28;20390;-79
2022/06/18 09:33:27;;;;;;;2.58;1.25;;;29.10;58.80;;;;;;4977962;28;20042;-80
2022/06/18 09:36:13;;;;;;;1.58;1.45;;;29.00;58.80;;;;;;4996178;28;20061;-80
2022/06/18 09:38:43;;;;;;;2.55;1.15;;;29.00;59.50;;;;;;4982519;28;20049;-79
2022/06/18 09:41:30;;;;;;;1.17;1.00;;;29.00;58.90;;;;;;4980643;28;20048;-81
2022/06/18 09:44:10;;;;;;;1.60;1.00;;;29.00;59.00;;;;;;5011136;28;20120;-80
2022/06/18 09:47:01;;;;;;;2.20;1.20;;;29.00;58.90;;;;;;4967165;28;20038;-77
2022/06/18 09:49:28;;;;;;;1.55;1.30;;;29.10;58.80;;;;;;5010422;28;20038;-78
2022/06/18 09:52:03;;;;;;;1.23;1.00;;;29.10;58.60;;;;;;5011250;28;20133;-77
2022/06/18 09:54:36;;;;;;;1.33;1.00;;;29.20;58.70;;;;;;5013463;28;20556;-78
2022/06/18 09:57:03;;;;;;;2.15;1.20;;;29.20;58.50;;;;;;4996313;28;20073;-78
2022/06/18 09:59:35;;;;;;;1.58;1.10;;;29.30;58.40;;;;;;4995747;28;20056;-78
2022/06/18 10:02:01;;;;;;;1.73;1.15;;;29.40;58.30;;;;;;5013543;28;20048;-78
2022/06/18 10:07:23;;;;;;;1.20;1.02;;;29.70;57.90;;;;;;4998661;28;20042;-78
2022/06/18 10:09:54;;;;;;;1.75;1.10;;;29.80;57.80;;;;;;5013841;28;20038;-77
2022/06/18 10:12:26;;;;;;;1.55;1.13;;;29.90;57.40;;;;;;5013421;28;20128;-77
2022/06/18 10:14:56;;;;;;;1.40;1.20;;;30.00;57.50;;;;;;4996172;28;20049;-77
2022/06/18 10:18:00;;;;;;;1.20;1.10;;;29.80;57.60;;;;;;4995342;28;20050;-78
2022/06/18 10:20:44;;;;;;;1.30;1.20;;;29.80;57.70;;;;;;5013392;28;20587;-78
2022/06/18 10:23:45;;;;;;;1.17;1.08;;;29.80;57.70;;;;;;5013345;28;20111;-77
2022/06/18 10:26:37;;;;;;;1.27;1.05;;;30.00;57.60;;;;;;4993345;28;20481;-77
2022/06/18 10:29:24;;;;;;;1.10;1.00;;;30.10;57.40;;;;;;4995564;28;20061;-78
2022/06/18 10:32:09;;;;;;;1.25;1.15;;;30.20;57.20;;;;;;5012943;28;20117;-78
2022/06/18 10:34:55;;;;;;;1.52;1.15;;;30.20;57.00;;;;;;4996425;28;20030;-77
2022/06/18 10:37:45;;;;;;;1.25;1.00;;;30.00;57.10;;;;;;5012553;28;20034;-78
2022/06/18 10:40:34;;;;;;;1.55;1.10;;;29.80;57.20;;;;;;4995329;28;20145;-77
2022/06/18 10:43:28;;;;;;;1.27;1.17;;;29.60;57.50;;;;;;4994236;28;20046;-77
2022/06/18 10:46:07;;;;;;;1.92;1.27;;;29.60;57.50;;;;;;5012928;28;20030;-78
2022/06/18 10:48:34;;;;;;;1.83;1.33;;;29.80;57.30;;;;;;4977742;28;20084;-78
2022/06/18 10:51:02;;;;;;;1.65;1.20;;;29.90;57.00;;;;;;5014127;28;20121;-77
2022/06/18 10:53:34;;;;;;;1.27;1.10;;;30.00;56.80;;;;;;4996876;28;20486;-77
2022/06/18 10:56:06;;;;;;;1.35;1.10;;;29.90;56.70;;;;;;5013142;28;20041;-77
2022/06/18 10:58:32;;;;;;;1.38;1.10;;;30.10;56.50;;;;;;4994936;28;20086;-78
2022/06/18 11:01:03;;;;;;;1.10;1.00;;;30.20;56.90;;;;;;4995046;28;20466;-78
2022/06/18 11:03:34;;;;;;;0.80;0.80;;;30.30;56.00;;;;;;5011285;28;20054;-77
2022/06/18 11:06:09;;;;;;;1.42;1.15;;;30.30;55.90;;;;;;5012503;28;20041;-77
2022/06/18 11:08:36;;;;;;;1.00;0.90;;;30.30;55.90;;;;;;4994455;28;20116;-77
2022/06/18 11:11:08;;;;;;;1.17;1.05;;;30.30;55.90;;;;;;5012734;28;20497;-77
2022/06/18 11:13:39;;;;;;;1.42;1.20;;;30.30;55.80;;;;;;5012866;28;20493;-77
2022/06/18 11:16:16;;;;;;;1.38;1.10;;;30.30;55.80;;;;;;5012787;28;20197;-78
2022/06/18 11:18:44;;;;;;;1.27;1.05;;;30.40;55.80;;;;;;5012273;28;20041;-78
2022/06/18 11:21:17;;;;;;;2.92;1.25;;;30.50;55.70;;;;;;5012583;28;20481;-78
2022/06/18 11:23:51;;;;;;;2.17;1.20;;;30.50;55.40;;;;;;5010693;28;20030;-78
2022/06/18 11:26:22;;;;;;;1.55;1.10;;;30.40;56.00;;;;;;5010347;28;20117;-77
2022/06/18 11:28:51;;;;;;;1.10;1.00;;;30.40;55.50;;;;;;5012222;28;20034;-78
2022/06/18 11:31:35;;;;;;;1.05;1.00;;;30.50;55.50;;;;;;4994528;28;20486;-78
2022/06/18 11:34:05;;;;;;;1.35;1.10;;;30.60;55.40;;;;;;4995144;28;20041;-78
2022/06/18 11:36:34;;;;;;;;;;;30.60;55.10;;;;;;5012528;28;20029;-78
2022/06/18 11:39:02;;;;;;;0.80;0.80;;;30.60;55.20;;;;;;5012027;28;19960;-78
2022/06/18 11:41:47;;;;;;;3.10;1.10;;;30.60;55.30;;;;;;5011690;28;20078;-78
2022/06/18 11:44:22;;;;;;;1.05;0.95;;;30.60;55.00;;;;;;5010795;28;20073;-78
2022/06/18 11:47:11;;;;;;;1.23;1.13;;;30.70;55.10;;;;;;5009719;28;20049;-77
2022/06/18 11:49:47;;;;;;;1.30;1.20;;;30.60;55.00;;;;;;5011603;28;20046;-76
2022/06/18 11:52:26;;;;;;;2.63;1.45;;;30.70;54.90;;;;;;4994021;28;20045;-78
2022/06/18 11:55:21;;;;;;;1.20;1.10;;;30.60;54.90;;;;;;4993771;28;20049;-78
2022/06/18 11:58:12;;;;;;;1.45;1.10;;;30.60;54.90;;;;;;4994056;28;20044;-78
2022/06/18 12:01:03;;;;;;;1.30;1.20;;;30.60;54.90;;;;;;4993837;28;20123;-77
2022/06/18 12:03:37;;;;;;;1.05;0.98;;;30.60;54.80;;;;;;4992491;28;20038;-77
2022/06/18 12:06:17;;;;;;;1.67;1.00;;;30.70;54.80;;;;;;5011301;28;20494;-77
2022/06/18 12:08:43;;;;;;;0.93;0.90;;;30.70;54.80;;;;;;5011488;28;20034;-78
2022/06/18 12:11:25;;;;;;;1.13;1.02;;;30.70;54.70;;;;;;5011758;28;20474;-77
2022/06/18 12:14:07;;;;;;;1.00;1.00;;;30.70;54.60;;;;;;5012280;28;20033;-78
2022/06/18 12:16:43;;;;;;;1.40;1.10;;;30.70;55.40;;;;;;4997131;28;20125;-78
2022/06/18 12:19:19;;;;;;;1.45;1.20;;;30.70;54.60;;;;;;5013527;28;20038;-78
2022/06/18 12:22:10;;;;;;;1.10;1.00;;;30.70;54.60;;;;;;4997311;28;20096;-77
2022/06/18 12:24:49;;;;;;;1.40;1.30;;;30.70;54.40;;;;;;5015539;28;20466;-78
2022/06/18 12:27:21;;;;;;;1.33;1.23;;;30.70;54.60;;;;;;5014627;28;20034;-78
2022/06/18 12:30:17;;;;;;;1.92;1.20;;;30.70;54.60;;;;;;5015384;28;20478;-77
2022/06/18 12:32:53;;;;;;;1.10;1.00;;;30.80;54.50;;;;;;5013146;28;20394;-77
2022/06/18 12:35:56;;;;;;;1.55;1.25;;;30.80;54.30;;;;;;5013111;28;20072;-78
2022/06/18 12:38:47;;;;;;;1.50;1.13;;;30.90;54.10;;;;;;4997070;28;20135;-77
2022/06/18 12:41:41;;;;;;;1.38;1.20;;;30.90;54.20;;;;;;4996602;28;20060;-77
2022/06/18 12:44:27;;;;;;;1.25;1.10;;;30.90;54.20;;;;;;5013784;28;20122;-78
2022/06/18 12:47:05;;;;;;;1.20;1.10;;;30.80;54.00;;;;;;5013657;28;20061;-78
2022/06/18 12:49:56;;;;;;;2.63;1.40;;;30.80;54.20;;;;;;5014305;28;20038;-78
2022/06/18 12:52:35;;;;;;;2.00;1.40;;;30.90;54.10;;;;;;4999773;28;20069;-78
2022/06/18 12:55:18;;;;;;;1.83;1.20;;;30.90;53.90;;;;;;4996779;28;20524;-78
2022/06/18 12:58:09;;;;;;;1.38;1.20;;;31.10;54.70;;;;;;5014325;28;20046;-78
2022/06/18 13:00:42;;;;;;;1.30;1.13;;;31.00;54.00;;;;;;4998479;28;20088;-78
2022/06/18 13:03:26;;;;;;;1.10;1.00;;;31.00;54.00;;;;;;4997427;28;20111;-78
2022/06/18 13:05:59;;;;;;;2.78;1.23;;;30.90;53.90;;;;;;5014242;28;20092;-78
2022/06/18 13:08:59;;;;;;;1.75;1.27;;;31.00;53.90;;;;;;4996368;28;20038;-78
2022/06/18 13:11:44;;;;;;;;;;;30.90;53.80;;;;;;5014312;28;20040;-78
2022/06/18 13:14:50;;;;;;;2.22;1.20;;;30.80;54.00;;;;;;5012848;28;19945;-77
2022/06/18 13:17:22;;;;;;;1.75;1.17;;;30.80;54.10;;;;;;4996276;28;20042;-77
2022/06/18 13:19:56;;;;;;;1.20;1.10;;;30.70;54.20;;;;;;4977983;28;20038;-78
2022/06/18 13:22:23;;;;;;;1.65;1.33;;;30.70;54.20;;;;;;5014164;28;20050;-79
2022/06/18 13:30:42;;;;;;;1.25;1.08;;;30.70;54.00;;;;;;5017751;28;20449;-80